Flight Track Log - Related Links

Times and Time Zones

All times are in EDT time to prevent confusion due to time zone crossing. See the CTL18 flight status page for this flight to view local times or setup timezone preferences in your user account.

Time Position Orientation Groundspeed Altitude Reporting Facility
EDT Latitude Longitude Course Direction KTS MPH feet Rate Location/Type
Tue 09:06:40 PM 42.1936 -83.5878 223° Southwest 133 153 1,900  Level Cleveland Center
Tue 09:07:47 PM 42.1553 -83.6167 209° Southwest 165 190 2,300 393 Climbing Cleveland Center
Tue 09:08:42 PM 42.1139 -83.6119 175° South 164 189 2,700 385 Climbing Cleveland Center
Tue 09:09:36 PM 42.0742 -83.6100 178° South 162 186 3,000 135 Climbing Cleveland Center
Tue 09:10:55 PM 42.0144 -83.5847 163° South 177 204 3,000  Level Cleveland Center
Tue 09:11:37 PM 42.0031 -83.5397 109° East 172 198 3,000  Level Cleveland Center
Tue 09:12:44 PM 41.9819 -83.4714 113° Southeast 179 206 3,000  Level Cleveland Center
Tue 09:13:51 PM 41.9650 -83.4039 109° East 176 203 3,000  Level Cleveland Center
Tue 09:14:39 PM 41.9492 -83.3583 115° Southeast 178 205 3,000  Level Cleveland Center
Tue 09:15:46 PM 41.9281 -83.2850 111° Southeast 179 206 3,000 179 Level Cleveland Center
Tue 09:16:53 PM 41.9131 -83.2200 107° East 174 200 3,400 347 Climbing Cleveland Center
Tue 09:17:47 PM 41.8953 -83.1664 114° Southeast 175 201 3,700 347 Climbing Cleveland Center
Tue 09:18:54 PM 41.8781 -83.0986 109° East 174 200 4,100 350 Climbing Cleveland Center
Tue 09:20:04 PM 41.8608 -83.0311 109° East 173 199 4,500 378 Climbing Cleveland Center
Tue 09:21:17 PM 41.8353 -82.9547 114° Southeast 171 197 5,000 247 Climbing Cleveland Center
Tue 09:22:30 PM 41.8161 -82.8817 109° East 175 201 5,100 47 Climbing Cleveland Center
Tue 09:23:24 PM 41.8025 -82.8256 108° East 183 211 5,100 -50 Level Cleveland Center
Tue 09:24:31 PM 41.7831 -82.7525 110° East 180 207 5,000 -47 Descending Cleveland Center
Tue 09:25:31 PM 41.7653 -82.6933 112° Southeast 175 201 5,000 52 Level Cleveland Center
Tue 09:26:26 PM 41.7539 -82.6344 105° East 175 201 5,100  Climbing Cleveland Center
Tue 09:27:33 PM 41.7344 -82.5672 111° Southeast 175 201 5,000 -45 Descending Cleveland Center
Tue 09:28:39 PM 41.7147 -82.4969 111° Southeast 176 203 5,000  Level Cleveland Center
Tue 09:29:40 PM 41.6992 -82.4325 108° East 179 206 5,000 -94 Level Cleveland Center
Tue 09:30:47 PM 41.6792 -82.3653 112° Southeast 183 211 4,800 -397 Descending Cleveland Center
Tue 09:31:41 PM 41.6678 -82.3064 104° East 191 220 4,200 -783 Descending Cleveland Center
Tue 09:32:42 PM 41.6519 -82.2367 107° East 204 235 3,300 -609 Descending Cleveland Center
Tue 09:33:49 PM 41.6281 -82.1556 111° Southeast 196 226 2,900 -397 Descending Cleveland Center
Tue 09:34:43 PM 41.6144 -82.0939 106° East 184 212 2,500 -470 Descending Cleveland Center
Tue 09:35:44 PM 41.5986 -82.0242 107° East 195 224 2,000 -397 Descending Cleveland Center
Tue 09:36:44 PM 41.5806 -81.9600 111° Southeast 185 213 1,700 -189 Descending Cleveland Center
Tue 09:37:51 PM 41.5628 -81.8903 109° East 181 208 1,600 -47 Descending Cleveland Center
Tue 09:38:52 PM 41.5444 -81.8317 113° Southeast 172 198 1,600  Level Cleveland Center
Tue 09:39:52 PM 41.5264 -81.7758 113° Southeast 166 191 1,600 -104 Level Cleveland Center
Tue 09:40:47 PM 41.5103 -81.7256 113° Southeast 153 176 1,400 -218 Descending Cleveland Center

Login

Don't have an account? Register now (free) for customized features, flight alerts, and more!